Time;durP1;ratioP1;P1;durP2;ratioP2;P2;SDS_P1;SDS_P2;PMS_P1;PMS_P2;Temp;Humidity;BMP_temperature;BMP_pressure;BME280_temperature;BME280_humidity;BME280_pressure;Samples;Min_cycle;Max_cycle;Signal;HPM_P1;HPM_P2
2023/05/21 00:04:10;;;;;;;8.43;6.15;;;;;;;13.76;65.42;100639.50;10090330;29;20041;-77
2023/05/21 00:09:13;;;;;;;7.18;6.20;;;;;;;13.77;65.52;100638.50;10088731;29;20033;-74
2023/05/21 00:14:17;;;;;;;7.47;6.53;;;;;;;13.79;65.47;100631.97;10081416;29;20369;-77
2023/05/21 00:19:20;;;;;;;9.48;8.02;;;;;;;13.80;65.78;100622.91;10059677;29;20038;-78
2023/05/21 00:24:23;;;;;;;10.23;8.13;;;;;;;13.87;65.59;100615.09;10062490;29;20062;-77
2023/05/21 00:29:28;;;;;;;9.55;7.72;;;;;;;13.93;65.82;100617.22;10051549;29;20149;-76
2023/05/21 00:34:31;;;;;;;10.27;7.47;;;;;;;13.93;65.63;100615.41;10059800;29;20529;-77
2023/05/21 00:39:35;;;;;;;10.38;7.50;;;;;;;13.91;65.44;100600.31;10087968;29;20139;-78
2023/05/21 00:44:40;;;;;;;11.20;8.18;;;;;;;13.93;65.73;100609.13;10060187;29;20041;-77
2023/05/21 00:49:43;;;;;;;7.72;6.93;;;;;;;13.90;65.74;100604.00;10086484;29;20109;-78
2023/05/21 00:54:46;;;;;;;9.40;8.02;;;;;;;13.86;65.77;100602.59;10066533;29;20135;-77
2023/05/21 00:59:52;;;;;;;9.45;7.85;;;;;;;13.83;65.86;100603.72;10051365;29;20094;-76
2023/05/21 01:04:55;;;;;;;10.70;7.53;;;;;;;13.88;65.91;100595.22;10069743;29;20158;-75
2023/05/21 01:09:58;;;;;;;10.75;8.35;;;;;;;13.91;65.89;100595.78;10082415;29;20058;-77
2023/05/21 01:15:03;;;;;;;12.05;8.00;;;;;;;13.93;66.15;100590.22;10047527;29;20045;-78
2023/05/21 01:20:09;;;;;;;10.30;8.18;;;;;;;13.86;66.03;100602.59;10079798;29;20045;-77
2023/05/21 01:25:14;;;;;;;13.10;8.20;;;;;;;13.76;66.47;100594.47;10080041;29;20045;-78
2023/05/21 01:30:18;;;;;;;10.10;8.20;;;;;;;13.71;66.53;100594.03;10047970;29;20045;-76
2023/05/21 01:35:25;;;;;;;10.55;8.52;;;;;;;13.65;66.62;100581.94;10079147;29;20054;-77
2023/05/21 01:40:37;;;;;;;10.65;8.95;;;;;;;13.62;66.82;100584.06;10053592;29;20142;-78
2023/05/21 01:45:42;;;;;;;13.77;9.50;;;;;;;13.57;67.19;100578.22;10054486;29;20058;-78
2023/05/21 01:50:46;;;;;;;9.45;8.07;;;;;;;13.54;67.20;100583.91;10054185;29;20072;-77
2023/05/21 01:55:50;;;;;;;11.10;8.52;;;;;;;13.47;67.33;100589.03;10054239;29;20053;-77
2023/05/21 02:00:53;;;;;;;10.35;8.00;;;;;;;13.43;67.37;100576.78;10080131;29;20072;-78
2023/05/21 02:05:56;;;;;;;10.70;8.25;;;;;;;13.39;67.78;100572.66;10059205;29;20072;-77
2023/05/21 02:11:00;;;;;;;11.27;8.52;;;;;;;13.38;67.60;100570.94;10055454;29;20053;-78
2023/05/21 02:16:04;;;;;;;11.02;8.55;;;;;;;13.35;67.87;100565.78;10057115;29;20074;-77
2023/05/21 02:21:06;;;;;;;12.00;9.10;;;;;;;13.30;68.09;100558.09;10085223;29;20208;-76
2023/05/21 02:26:11;;;;;;;9.63;8.48;;;;;;;13.30;67.92;100565.34;10080315;29;20057;-78
2023/05/21 02:31:14;;;;;;;10.70;8.27;;;;;;;13.24;68.33;100570.31;10102868;29;20056;-74
2023/05/21 02:36:17;;;;;;;9.88;7.70;;;;;;;13.23;68.42;100568.59;10063587;29;20113;-77
2023/05/21 02:41:22;;;;;;;10.77;8.63;;;;;;;13.23;68.35;100565.91;10080895;29;20074;-78
2023/05/21 02:46:25;;;;;;;10.25;8.20;;;;;;;13.21;68.35;100564.34;10082139;29;20053;-77
2023/05/21 02:51:28;;;;;;;10.75;8.00;;;;;;;13.17;68.26;100565.63;10050164;29;20042;-77
2023/05/21 02:56:32;;;;;;;13.00;8.80;;;;;;;13.10;68.51;100557.19;10039491;29;20081;-77
2023/05/21 03:01:36;;;;;;;12.18;8.80;;;;;;;13.02;69.08;100544.38;10036740;29;20413;-76
2023/05/21 03:06:39;;;;;;;12.68;9.05;;;;;;;13.01;69.21;100539.16;10056888;29;20073;-77
2023/05/21 03:11:43;;;;;;;10.35;8.82;;;;;;;13.01;69.40;100536.47;10034753;29;20098;-77
2023/05/21 03:16:47;;;;;;;11.30;9.63;;;;;;;13.07;69.50;100541.28;10026094;29;20056;-76
2023/05/21 03:21:53;;;;;;;13.63;9.35;;;;;;;13.09;69.41;100533.94;10036516;29;20387;-79
2023/05/21 03:26:58;;;;;;;14.35;9.40;;;;;;;13.11;69.38;100525.69;10038056;29;20127;-77
2023/05/21 03:32:01;;;;;;;11.68;9.20;;;;;;;13.09;69.22;100527.69;10046109;29;20421;-78
2023/05/21 03:37:06;;;;;;;11.25;8.55;;;;;;;13.02;69.43;100539.00;10070491;29;20053;-78
2023/05/21 03:42:12;;;;;;;11.40;8.65;;;;;;;13.03;69.58;100540.72;10049899;29;20067;-78
2023/05/21 03:47:26;;;;;;;12.80;9.13;;;;;;;13.07;69.56;100540.44;10047447;29;20054;-77
2023/05/21 03:52:29;;;;;;;10.05;8.20;;;;;;;13.05;69.59;100540.56;10053838;29;20045;-77
2023/05/21 03:57:34;;;;;;;11.52;9.35;;;;;;;13.10;69.72;100550.97;10044677;29;20053;-77
2023/05/21 04:02:37;;;;;;;11.75;8.55;;;;;;;13.19;69.65;100545.59;10078030;29;20046;-77
2023/05/21 04:07:41;;;;;;;16.13;9.10;;;;;;;13.23;69.53;100543.47;10051397;29;20085;-78
2023/05/21 04:12:47;;;;;;;18.45;10.63;;;;;;;13.19;69.57;100540.22;10052525;29;20045;-79
2023/05/21 04:17:51;;;;;;;11.70;9.48;;;;;;;13.28;69.67;100546.63;10061974;29;20619;-77
2023/05/21 04:22:54;;;;;;;12.40;9.40;;;;;;;13.35;69.45;100550.44;10056931;29;20065;-77
2023/05/21 04:27:58;;;;;;;13.30;9.63;;;;;;;13.40;69.14;100556.31;10055469;29;20045;-76
2023/05/21 04:33:01;;;;;;;14.05;10.90;;;;;;;13.44;69.30;100563.16;10085413;29;20443;-77
2023/05/21 04:38:05;;;;;;;12.90;9.52;;;;;;;13.52;68.96;100570.56;10054770;29;20058;-78
2023/05/21 04:43:10;;;;;;;15.30;10.20;;;;;;;13.59;68.76;100569.00;10085738;29;20153;-78
2023/05/21 04:48:14;;;;;;;13.95;9.07;;;;;;;13.71;68.54;100569.72;10070642;29;20056;-77
2023/05/21 04:53:17;;;;;;;11.80;10.13;;;;;;;13.82;68.43;100566.91;10074747;29;20073;-77
2023/05/21 04:58:21;;;;;;;13.73;10.45;;;;;;;13.84;68.10;100572.16;10062156;29;20596;-78
2023/05/21 05:03:25;;;;;;;20.40;10.85;;;;;;;13.90;67.97;100563.50;10060559;29;20124;-78
2023/05/21 05:08:28;;;;;;;11.75;10.15;;;;;;;14.00;67.74;100561.66;10050459;29;20046;-78
2023/05/21 05:13:34;;;;;;;13.93;10.73;;;;;;;14.03;67.69;100545.16;10057876;29;20045;-77
2023/05/21 05:18:37;;;;;;;14.43;9.98;;;;;;;14.08;67.27;100542.03;10076599;29;20526;-78
2023/05/21 05:23:40;;;;;;;12.55;10.00;;;;;;;14.18;67.13;100542.00;10075379;29;20081;-78
2023/05/21 05:28:45;;;;;;;14.82;9.82;;;;;;;14.24;66.94;100545.00;10053291;29;20054;-78
2023/05/21 05:33:49;;;;;;;12.23;9.52;;;;;;;14.47;66.51;100544.72;10057220;29;20057;-78
2023/05/21 05:38:52;;;;;;;12.55;9.52;;;;;;;14.62;66.11;100543.25;10059909;29;20121;-77
2023/05/21 05:43:57;;;;;;;12.45;9.13;;;;;;;14.69;65.80;100538.09;10054691;29;20054;-77
2023/05/21 05:49:04;;;;;;;14.85;9.10;;;;;;;14.76;65.90;100536.53;10053153;29;20652;-78
2023/05/21 05:54:07;;;;;;;10.93;9.50;;;;;;;14.84;65.65;100533.94;10049251;29;20042;-78
2023/05/21 05:59:12;;;;;;;13.32;9.60;;;;;;;14.85;64.99;100534.78;10054881;29;20099;-77
2023/05/21 06:04:21;;;;;;;12.93;9.38;;;;;;;15.03;64.96;100538.41;10083541;29;20133;-77
2023/05/21 06:09:24;;;;;;;12.40;9.90;;;;;;;15.05;64.54;100529.09;10072992;29;20060;-76
2023/05/21 06:14:29;;;;;;;12.57;9.35;;;;;;;15.03;64.68;100528.44;10072517;29;20500;-77
2023/05/21 06:19:31;;;;;;;10.88;8.68;;;;;;;15.13;64.27;100527.53;10021287;29;20052;-76
2023/05/21 06:24:35;;;;;;;11.63;9.43;;;;;;;15.26;64.20;100531.56;10020504;29;20048;-76
2023/05/21 06:29:41;;;;;;;10.77;9.25;;;;;;;15.26;64.05;100531.56;10016164;29;20773;-78
2023/05/21 06:34:44;;;;;;;11.52;9.82;;;;;;;15.43;63.45;100531.78;10045637;29;20068;-77
2023/05/21 06:39:47;;;;;;;9.98;8.88;;;;;;;15.60;63.32;100525.53;10016772;29;20076;-75
2023/05/21 06:44:51;;;;;;;11.45;9.07;;;;;;;15.75;62.93;100516.91;10016019;29;20072;-76
2023/05/21 06:50:02;;;;;;;;;;;;;;;15.96;62.30;100520.09;10043715;29;21198;-77
2023/05/21 06:55:06;;;;;;;11.75;8.23;;;;;;;16.06;61.58;100525.47;10017529;29;19929;-77
2023/05/21 07:00:35;;;;;;;9.10;7.30;;;;;;;16.15;61.03;100528.09;10019262;29;20112;-77
2023/05/21 07:05:39;;;;;;;14.02;9.65;;;;;;;16.16;60.98;100520.81;10016289;29;20056;-76
2023/05/21 07:10:42;;;;;;;15.90;10.23;;;;;;;16.15;60.96;100525.38;10007564;29;20048;-77
2023/05/21 07:15:47;;;;;;;12.73;9.10;;;;;;;16.39;60.75;100520.31;10011164;29;20054;-77
2023/05/21 07:20:50;;;;;;;12.95;9.88;;;;;;;16.64;60.51;100524.88;10035543;29;20050;-78
2023/05/21 07:25:55;;;;;;;10.80;9.13;;;;;;;16.96;59.35;100528.78;10022929;29;20049;-77
2023/05/21 07:30:59;;;;;;;15.40;9.63;;;;;;;17.28;58.37;100532.66;10037912;29;20058;-77
2023/05/21 07:36:08;;;;;;;11.13;9.38;;;;;;;17.39;57.67;100529.66;10034960;29;20053;-76
2023/05/21 07:41:11;;;;;;;13.65;11.05;;;;;;;17.53;57.71;100526.28;10013588;29;20041;-76
2023/05/21 07:46:16;;;;;;;12.95;10.25;;;;;;;17.86;57.33;100529.06;10010190;29;20072;-77
2023/05/21 07:51:20;;;;;;;17.42;10.73;;;;;;;18.24;56.56;100519.41;10019756;29;20773;-77
2023/05/21 07:56:23;;;;;;;16.80;11.07;;;;;;;18.52;55.60;100519.03;10023760;29;20061;-77
2023/05/21 08:01:28;;;;;;;13.80;10.90;;;;;;;18.44;55.12;100513.63;10074155;29;20644;-76
2023/05/21 08:06:33;;;;;;;12.30;10.00;;;;;;;18.34;55.34;100509.19;10024540;29;20432;-76
2023/05/21 08:11:36;;;;;;;16.42;12.02;;;;;;;18.58;55.19;100521.06;10027501;29;21254;-77
2023/05/21 08:16:40;;;;;;;19.50;12.20;;;;;;;18.70;54.78;100511.50;10018212;29;20049;-77
2023/05/21 08:21:44;;;;;;;17.92;12.55;;;;;;;18.70;54.97;100516.94;10040750;29;20134;-78
2023/05/21 08:26:48;;;;;;;15.80;12.55;;;;;;;19.00;54.65;100519.94;10018500;29;20118;-73
2023/05/21 08:31:52;;;;;;;14.07;11.80;;;;;;;19.09;54.43;100515.28;10021839;29;20049;-76
2023/05/21 08:36:55;;;;;;;17.30;11.77;;;;;;;19.22;53.96;100513.69;10014471;29;20048;-75
2023/05/21 08:42:27;;;;;;;16.13;11.82;;;;;;;19.23;53.55;100515.41;10018708;29;20437;-77
2023/05/21 08:47:43;;;;;;;13.93;11.85;;;;;;;19.59;53.33;100511.31;10045525;29;20064;-77
2023/05/21 08:52:47;;;;;;;17.90;11.60;;;;;;;19.97;53.11;100516.84;10015278;29;20061;-76
2023/05/21 08:57:50;;;;;;;16.67;12.85;;;;;;;20.26;51.84;100521.50;10013599;29;20611;-76
2023/05/21 09:02:55;;;;;;;14.13;11.60;;;;;;;20.43;51.40;100508.59;10015516;29;20536;-76
2023/05/21 09:08:05;;;;;;;15.63;12.52;;;;;;;20.24;51.91;100509.94;10017604;29;20197;-77
2023/05/21 09:13:20;;;;;;;17.08;12.75;;;;;;;20.24;51.88;100507.22;10013360;29;20407;-76
2023/05/21 09:18:27;;;;;;;15.38;12.20;;;;;;;20.20;52.43;100511.34;10016461;29;20510;-78
2023/05/21 09:23:39;;;;;;;15.05;11.82;;;;;;;20.55;51.73;100505.22;10041991;29;20074;-76
2023/05/21 09:28:43;;;;;;;15.60;12.20;;;;;;;20.88;50.71;100498.56;10021250;29;20436;-76
2023/05/21 09:33:47;;;;;;;18.45;12.48;;;;;;;20.96;50.44;100493.00;10011640;29;20064;-74
2023/05/21 09:38:52;;;;;;;18.83;12.70;;;;;;;20.97;50.07;100500.97;10010414;29;20057;-74
2023/05/21 09:43:59;;;;;;;14.00;12.13;;;;;;;21.14;51.04;100495.34;10009936;29;20202;-74
2023/05/21 09:49:04;;;;;;;19.08;13.00;;;;;;;21.45;50.37;100495.09;10004033;29;20140;-76
2023/05/21 09:54:11;;;;;;;15.48;11.70;;;;;;;21.93;49.58;100502.75;10010348;29;20057;-77
2023/05/21 09:59:14;;;;;;;14.10;12.18;;;;;;;22.56;48.13;100498.22;10008290;29;20053;-77
2023/05/21 10:04:18;;;;;;;14.98;11.95;;;;;;;23.33;46.97;100494.44;10018912;29;20056;-76
2023/05/21 10:09:22;;;;;;;15.23;12.68;;;;;;;23.87;46.03;100482.56;10015723;29;20068;-75
2023/05/21 10:14:27;;;;;;;18.67;12.77;;;;;;;24.42;44.89;100476.03;10013936;29;20181;-77
2023/05/21 10:19:35;;;;;;;14.45;12.05;;;;;;;24.56;44.86;100469.44;10019721;29;20114;-76
2023/05/21 10:24:39;;;;;;;15.60;12.77;;;;;;;24.82;44.11;100476.78;10017576;29;20053;-75
2023/05/21 10:29:44;;;;;;;14.10;11.65;;;;;;;25.70;43.49;100461.56;10028952;29;20049;-76
2023/05/21 10:34:49;;;;;;;15.23;12.13;;;;;;;26.21;42.23;100460.53;10017938;29;20085;-77
2023/05/21 10:39:52;;;;;;;13.63;11.68;;;;;;;26.01;42.34;100453.28;10012441;29;20128;-76
2023/05/21 10:45:10;;;;;;;14.07;12.50;;;;;;;25.62;43.50;100444.25;10008891;29;20061;-75
2023/05/21 10:50:39;;;;;;;15.88;13.13;;;;;;;25.48;43.56;100450.03;10011803;29;20513;-77
2023/05/21 10:55:57;;;;;;;14.80;12.85;;;;;;;25.47;43.58;100434.63;10016487;29;20050;-77
2023/05/21 11:01:02;;;;;;;16.13;12.30;;;;;;;25.66;43.61;100430.09;10011442;29;20061;-76
2023/05/21 11:06:07;;;;;;;16.23;13.48;;;;;;;25.71;43.06;100422.00;10007053;29;20595;-78
2023/05/21 11:11:10;;;;;;;17.27;13.88;;;;;;;26.31;42.85;100421.50;10008441;29;20054;-77
2023/05/21 11:16:17;;;;;;;15.80;12.77;;;;;;;26.01;42.91;100424.94;10002299;29;20057;-77
2023/05/21 11:21:25;;;;;;;15.30;13.43;;;;;;;26.13;42.89;100420.34;10006413;29;20050;-75
2023/05/21 11:26:29;;;;;;;16.60;13.52;;;;;;;25.85;42.88;100421.66;10007751;29;20192;-77
2023/05/21 11:31:36;;;;;;;19.42;14.07;;;;;;;26.06;43.49;100427.84;10018189;29;20058;-76
2023/05/21 11:36:44;;;;;;;17.42;14.77;;;;;;;26.06;43.10;100425.94;10011372;29;20115;-76
2023/05/21 11:41:54;;;;;;;19.42;14.60;;;;;;;26.14;43.02;100412.94;10005616;29;20136;-77
2023/05/21 11:46:57;;;;;;;17.95;14.57;;;;;;;26.39;42.84;100411.03;10013865;29;20064;-77
2023/05/21 11:52:03;;;;;;;18.98;15.27;;;;;;;26.45;42.73;100418.38;10019520;29;20054;-77
2023/05/21 11:57:06;;;;;;;18.75;14.63;;;;;;;26.28;43.00;100403.53;10019345;29;20169;-77
2023/05/21 12:02:09;;;;;;;18.13;15.30;;;;;;;26.14;43.10;100397.28;10013397;29;20073;-76
2023/05/21 12:07:14;;;;;;;18.50;14.90;;;;;;;26.13;43.83;100398.34;10008447;29;20117;-77
2023/05/21 12:12:18;;;;;;;17.90;14.30;;;;;;;26.23;43.67;100398.69;10013298;29;20091;-77
2023/05/21 12:17:23;;;;;;;19.35;14.35;;;;;;;26.23;43.49;100393.19;10013299;29;20050;-75
2023/05/21 12:22:28;;;;;;;17.95;15.10;;;;;;;26.66;43.49;100388.69;10019589;29;20053;-77
2023/05/21 12:27:32;;;;;;;17.15;15.18;;;;;;;26.92;42.91;100393.03;10020309;29;20131;-76
2023/05/21 12:32:42;;;;;;;18.67;15.63;;;;;;;27.34;42.29;100385.66;10035962;29;20053;-76
2023/05/21 12:37:47;;;;;;;16.42;14.52;;;;;;;28.05;40.89;100374.75;10017391;29;20523;-76
2023/05/21 12:42:50;;;;;;;19.30;15.45;;;;;;;28.99;40.05;100385.66;10016068;29;20136;-76
2023/05/21 12:47:54;;;;;;;17.65;15.02;;;;;;;28.97;39.30;100374.00;10022946;29;20053;-77
2023/05/21 12:52:59;;;;;;;18.00;14.38;;;;;;;28.71;39.83;100372.63;10021137;29;20053;-77
2023/05/21 12:58:04;;;;;;;19.80;16.55;;;;;;;27.64;40.93;100370.16;10023281;29;20054;-77
2023/05/21 13:03:07;;;;;;;19.48;15.63;;;;;;;27.57;42.28;100379.38;10020566;29;20517;-78
2023/05/21 13:08:13;;;;;;;17.48;15.20;;;;;;;27.80;40.79;100367.53;10020361;29;20057;-76
2023/05/21 13:13:16;;;;;;;18.75;14.73;;;;;;;27.80;40.63;100361.16;10017926;29;20429;-77
2023/05/21 13:18:19;;;;;;;18.60;16.60;;;;;;;27.47;41.52;100370.84;10010887;29;20148;-77
2023/05/21 13:23:24;;;;;;;19.05;15.48;;;;;;;27.68;41.64;100360.34;10010452;29;20049;-77
2023/05/21 13:28:28;;;;;;;21.25;16.58;;;;;;;27.25;42.28;100358.66;10019826;29;20066;-77
2023/05/21 13:33:31;;;;;;;17.77;15.88;;;;;;;28.04;41.57;100354.59;10010055;29;20124;-77
2023/05/21 13:38:35;;;;;;;18.98;15.98;;;;;;;28.41;41.04;100351.53;10001596;29;20064;-78
2023/05/21 13:43:42;;;;;;;20.38;15.77;;;;;;;28.40;40.67;100341.56;10005241;29;20049;-78
2023/05/21 13:48:45;;;;;;;17.70;15.82;;;;;;;29.33;39.35;100341.50;10008441;29;20064;-77
2023/05/21 13:53:49;;;;;;;19.00;17.00;;;;;;;29.65;39.32;100344.56;10002233;29;20072;-76
2023/05/21 13:58:52;;;;;;;18.75;16.33;;;;;;;29.58;39.20;100344.69;10000523;29;20060;-78
2023/05/21 14:03:55;;;;;;;18.40;16.50;;;;;;;28.66;39.60;100344.88;9999229;29;20069;-76
2023/05/21 14:08:59;;;;;;;17.85;15.95;;;;;;;29.14;39.29;100341.72;10000595;29;20049;-77
2023/05/21 14:14:02;;;;;;;17.98;15.60;;;;;;;29.51;38.55;100332.09;10005479;29;20064;-78
2023/05/21 14:19:05;;;;;;;18.90;16.63;;;;;;;29.72;38.70;100334.13;10021204;29;20053;-77
2023/05/21 14:24:10;;;;;;;18.50;16.52;;;;;;;29.85;38.08;100338.50;10011737;29;20060;-77
2023/05/21 14:29:12;;;;;;;18.58;16.48;;;;;;;29.31;39.18;100335.38;10011722;29;20061;-76
2023/05/21 14:34:15;;;;;;;21.02;17.90;;;;;;;29.20;39.34;100322.44;10015366;29;20426;-75
2023/05/21 14:39:19;;;;;;;19.10;16.85;;;;;;;29.20;39.13;100320.50;10017080;29;20529;-77
2023/05/21 14:44:22;;;;;;;18.60;16.63;;;;;;;28.23;40.16;100327.69;10010926;29;20061;-75
2023/05/21 14:49:25;;;;;;;19.77;17.63;;;;;;;27.53;41.35;100334.03;10009003;29;20053;-76
2023/05/21 14:54:29;;;;;;;21.08;17.60;;;;;;;27.42;42.10;100328.50;10018029;29;20050;-78
2023/05/21 14:59:32;;;;;;;22.38;16.60;;;;;;;27.67;42.07;100314.50;10013561;29;20057;-78
2023/05/21 15:04:35;;;;;;;19.00;16.50;;;;;;;27.50;42.24;100317.94;10009262;29;20060;-76
2023/05/21 15:09:39;;;;;;;19.20;15.93;;;;;;;27.34;42.52;100313.97;10009284;29;20060;-76
2023/05/21 15:14:42;;;;;;;20.90;16.77;;;;;;;27.08;42.99;100311.63;10008829;29;20060;-77
2023/05/21 15:19:45;;;;;;;18.15;16.15;;;;;;;27.82;41.95;100309.34;10017063;29;20049;-77
2023/05/21 15:24:49;;;;;;;18.05;15.35;;;;;;;28.04;41.39;100307.66;10031715;29;20069;-77
2023/05/21 15:29:52;;;;;;;18.80;15.30;;;;;;;27.56;42.44;100299.59;10032136;29;20460;-77
2023/05/21 15:34:55;;;;;;;17.55;15.55;;;;;;;27.51;42.30;100285.69;10017833;29;20084;-77
2023/05/21 15:39:59;;;;;;;17.35;15.55;;;;;;;27.18;42.58;100271.38;10018666;29;20057;-76
2023/05/21 15:45:03;;;;;;;17.60;15.70;;;;;;;27.47;41.83;100263.28;10008271;29;20077;-77
2023/05/21 15:50:08;;;;;;;18.65;15.02;;;;;;;27.21;41.57;100242.50;10004472;29;20049;-76
2023/05/21 15:55:13;;;;;;;17.67;15.15;;;;;;;26.72;42.50;100250.84;10013480;29;20065;-76
2023/05/21 16:00:16;;;;;;;19.75;15.77;;;;;;;26.50;43.03;100253.28;10016596;29;20061;-78
2023/05/21 16:05:19;;;;;;;17.80;15.07;;;;;;;26.17;42.74;100250.94;10020290;29;20060;-76
2023/05/21 16:10:23;;;;;;;18.92;14.98;;;;;;;26.35;43.39;100246.50;10013966;29;20057;-76
2023/05/21 16:15:27;;;;;;;18.25;15.20;;;;;;;26.25;43.54;100250.66;10005412;29;20054;-76
2023/05/21 16:20:30;;;;;;;17.75;15.85;;;;;;;26.20;43.59;100252.41;10006657;29;20053;-77
2023/05/21 16:25:34;;;;;;;16.88;15.15;;;;;;;26.56;43.08;100234.16;10014076;29;20045;-76
2023/05/21 16:30:38;;;;;;;17.20;15.02;;;;;;;26.83;42.86;100246.50;10017518;29;20053;-76
2023/05/21 16:35:41;;;;;;;17.15;14.73;;;;;;;27.76;41.63;100242.16;10011226;29;20061;-76
2023/05/21 16:40:46;;;;;;;18.90;15.02;;;;;;;28.79;39.84;100239.59;10021414;29;20407;-77
2023/05/21 16:45:51;;;;;;;16.02;14.52;;;;;;;29.08;38.94;100240.41;10038343;29;20078;-77
2023/05/21 16:50:54;;;;;;;15.80;13.50;;;;;;;28.93;39.01;100243.72;10021037;29;20522;-77
2023/05/21 16:55:58;;;;;;;15.40;13.80;;;;;;;29.01;38.24;100247.16;10024435;29;21163;-77
2023/05/21 17:01:02;;;;;;;16.48;14.20;;;;;;;29.24;38.03;100252.56;10020129;29;20049;-77
2023/05/21 17:06:06;;;;;;;15.05;13.45;;;;;;;29.22;38.13;100240.06;10022316;29;20049;-77
2023/05/21 17:11:10;;;;;;;16.27;13.75;;;;;;;28.53;39.05;100249.34;10026680;29;20065;-76
2023/05/21 17:16:13;;;;;;;16.38;14.77;;;;;;;28.30;38.79;100243.84;10017452;29;20640;-77
2023/05/21 17:21:17;;;;;;;17.60;13.13;;;;;;;28.86;38.30;100242.22;10014842;29;20050;-76
2023/05/21 17:26:21;;;;;;;15.02;13.43;;;;;;;29.75;36.71;100238.69;10015217;29;20049;-77
2023/05/21 17:31:24;;;;;;;16.23;12.73;;;;;;;30.37;35.82;100237.56;10012039;29;20042;-77
2023/05/21 17:36:27;;;;;;;13.57;12.18;;;;;;;30.78;35.20;100243.56;10019307;29;20140;-76
2023/05/21 17:41:32;;;;;;;13.95;11.70;;;;;;;30.61;34.97;100241.72;10021484;29;20050;-76
2023/05/21 17:46:34;;;;;;;13.35;11.30;;;;;;;29.65;36.28;100244.06;10016724;29;21140;-74
2023/05/21 17:51:38;;;;;;;14.98;11.43;;;;;;;28.38;38.19;100244.31;10027717;29;20069;-77
2023/05/21 17:56:42;;;;;;;13.90;12.43;;;;;;;26.76;41.19;100251.22;10012623;29;20487;-77
2023/05/21 18:01:48;;;;;;;14.60;12.55;;;;;;;25.85;43.27;100266.75;10006189;29;20137;-76
2023/05/21 18:06:51;;;;;;;14.90;13.20;;;;;;;25.25;44.59;100260.97;10018485;29;20133;-75
2023/05/21 18:11:55;;;;;;;15.70;13.70;;;;;;;24.85;45.44;100251.09;10015430;29;20055;-77
2023/05/21 18:17:00;;;;;;;16.00;13.40;;;;;;;24.51;46.51;100250.44;10008325;29;20054;-77
2023/05/21 18:22:03;;;;;;;16.30;13.55;;;;;;;24.22;47.55;100248.25;10010075;29;20069;-75
2023/05/21 18:27:08;;;;;;;16.33;14.55;;;;;;;23.96;48.00;100246.44;10013652;29;20053;-76
2023/05/21 18:32:13;;;;;;;16.17;14.30;;;;;;;23.77;48.42;100248.16;10009665;29;20053;-76
2023/05/21 18:37:17;;;;;;;16.30;13.07;;;;;;;23.69;48.12;100251.13;10013394;29;20133;-76
2023/05/21 18:42:21;;;;;;;20.33;14.32;;;;;;;23.55;48.49;100251.13;10010666;29;20068;-76
2023/05/21 18:47:24;;;;;;;19.77;13.98;;;;;;;23.43;48.68;100250.94;10009365;29;20053;-77
2023/05/21 18:52:27;;;;;;;18.85;14.85;;;;;;;23.39;48.80;100252.44;10011268;29;20164;-76
2023/05/21 18:57:33;;;;;;;19.17;15.05;;;;;;;23.25;49.54;100258.13;10014586;29;20049;-75
2023/05/21 19:02:37;;;;;;;17.70;14.32;;;;;;;23.09;49.99;100262.06;10011362;29;20045;-75
2023/05/21 19:07:40;;;;;;;16.42;13.55;;;;;;;22.95;50.85;100267.53;10003367;29;20506;-76
2023/05/21 19:12:45;;;;;;;18.42;13.57;;;;;;;22.83;50.98;100263.75;10015513;29;20454;-75
2023/05/21 19:17:48;;;;;;;17.60;14.65;;;;;;;22.74;51.24;100273.22;10039997;29;20424;-75
2023/05/21 19:22:51;;;;;;;19.95;14.60;;;;;;;22.60;51.98;100269.59;10010700;29;20060;-76
2023/05/21 19:27:55;;;;;;;17.55;14.55;;;;;;;22.54;52.27;100270.41;10009803;29;20060;-78
2023/05/21 19:32:58;;;;;;;16.60;14.55;;;;;;;22.50;52.19;100277.34;10016986;29;20049;-74
2023/05/21 19:38:01;;;;;;;17.20;14.63;;;;;;;22.45;53.05;100279.84;10014545;29;20064;-76
2023/05/21 19:43:08;;;;;;;18.48;14.80;;;;;;;22.34;53.20;100284.00;10017019;29;20060;-74
2023/05/21 19:48:11;;;;;;;18.15;15.43;;;;;;;22.23;54.01;100273.63;10018764;29;20049;-76
2023/05/21 19:53:14;;;;;;;18.58;14.30;;;;;;;22.16;53.74;100281.81;10021617;29;20228;-77
2023/05/21 19:58:22;;;;;;;17.63;14.48;;;;;;;22.10;53.00;100286.22;10019805;29;20433;-74
2023/05/21 20:03:26;;;;;;;17.75;15.60;;;;;;;22.13;52.78;100292.31;10026118;29;20814;-76
2023/05/21 20:08:29;;;;;;;18.23;14.38;;;;;;;22.11;52.73;100287.06;10022888;29;20054;-77
2023/05/21 20:13:34;;;;;;;16.30;14.00;;;;;;;22.08;52.54;100284.72;10019801;29;20053;-77
2023/05/21 20:18:36;;;;;;;15.40;13.68;;;;;;;22.01;52.21;100286.56;10018680;29;20574;-77
2023/05/21 20:23:40;;;;;;;19.55;13.95;;;;;;;22.02;52.21;100289.13;10014104;29;20068;-74
2023/05/21 20:28:44;;;;;;;15.30;13.70;;;;;;;21.95;52.08;100280.03;10016148;29;20054;-77
2023/05/21 20:33:49;;;;;;;17.80;14.20;;;;;;;21.92;52.31;100282.31;10023030;29;20050;-77
2023/05/21 20:38:52;;;;;;;16.13;14.30;;;;;;;21.85;52.54;100277.63;10012039;29;20060;-77
2023/05/21 20:43:57;;;;;;;16.23;14.18;;;;;;;21.81;52.15;100279.09;10011577;29;20513;-76
2023/05/21 20:49:00;;;;;;;18.20;14.45;;;;;;;21.71;52.59;100275.00;10010646;29;20042;-76
2023/05/21 20:54:03;;;;;;;16.67;14.40;;;;;;;21.67;52.72;100278.13;10014325;29;20045;-76
2023/05/21 20:59:07;;;;;;;16.20;13.77;;;;;;;21.64;52.56;100281.28;10014605;29;20065;-77
2023/05/21 21:04:13;;;;;;;17.92;15.00;;;;;;;21.62;52.16;100277.88;10016900;29;20225;-78
2023/05/21 21:09:16;;;;;;;19.13;15.02;;;;;;;21.63;51.48;100285.03;10014613;29;20097;-77
2023/05/21 21:14:20;;;;;;;20.52;15.45;;;;;;;21.64;51.69;100289.47;10016293;29;20061;-77
2023/05/21 21:19:23;;;;;;;17.67;14.85;;;;;;;20.99;54.99;100294.13;10014124;29;20060;-78
2023/05/21 21:24:26;;;;;;;23.10;14.35;;;;;;;20.42;56.28;100289.50;10013930;29;20045;-77
2023/05/21 21:29:30;;;;;;;21.15;14.70;;;;;;;20.59;56.16;100283.81;10014434;29;20525;-74
2023/05/21 21:34:33;;;;;;;18.70;14.35;;;;;;;20.53;56.60;100272.63;10053709;29;20124;-77
2023/05/21 21:39:36;;;;;;;17.95;14.70;;;;;;;20.67;55.23;100267.34;10054375;29;20053;-77
2023/05/21 21:44:40;;;;;;;19.58;15.23;;;;;;;20.75;55.59;100278.13;10057505;29;20045;-76
2023/05/21 21:49:43;;;;;;;19.85;15.80;;;;;;;20.65;56.19;100269.41;10059703;29;20579;-77
2023/05/21 21:54:46;;;;;;;18.38;15.55;;;;;;;20.61;56.30;100266.22;10061414;29;20049;-77
2023/05/21 21:59:51;;;;;;;20.02;15.85;;;;;;;20.58;56.51;100274.81;10060263;29;20069;-77
2023/05/21 22:04:54;;;;;;;21.45;15.95;;;;;;;20.50;56.89;100274.91;10053854;29;20045;-77
2023/05/21 22:09:57;;;;;;;19.55;16.33;;;;;;;20.41;56.83;100276.06;10050449;29;20087;-76
2023/05/21 22:15:03;;;;;;;18.27;14.95;;;;;;;20.31;57.45;100279.94;10049493;29;20408;-77
2023/05/21 22:20:07;;;;;;;20.40;16.38;;;;;;;20.23;57.51;100279.16;10048956;29;20078;-77
2023/05/21 22:25:10;;;;;;;18.40;16.33;;;;;;;20.17;57.29;100272.59;10045996;29;20116;-77
2023/05/21 22:30:14;;;;;;;18.80;15.68;;;;;;;20.10;57.07;100267.06;10047404;29;20038;-77
2023/05/21 22:35:18;;;;;;;21.35;16.60;;;;;;;20.16;57.84;100262.72;10038278;29;20495;-77
2023/05/21 22:40:21;;;;;;;18.10;14.90;;;;;;;20.18;57.05;100259.81;10046311;29;20105;-77
2023/05/21 22:45:25;;;;;;;19.55;15.30;;;;;;;20.17;56.56;100256.22;10041965;29;20517;-77
2023/05/21 22:50:31;;;;;;;17.05;14.65;;;;;;;20.12;56.70;100248.63;10042387;29;20472;-77
2023/05/21 22:55:34;;;;;;;19.42;15.60;;;;;;;20.15;56.54;100255.56;10041144;29;20049;-77